createdAt,value
2024-04-23T00:00:57.242Z,8.10
2024-04-23T00:03:24.344Z,8.10
2024-04-23T00:05:51.420Z,8.10
2024-04-23T00:08:18.440Z,8.20
2024-04-23T00:10:45.468Z,8.10
2024-04-23T00:13:12.530Z,8.10
2024-04-23T00:15:39.538Z,8.10
2024-04-23T00:18:07.021Z,8.20
2024-04-23T00:20:34.292Z,8.30
2024-04-23T00:23:01.490Z,8.30
2024-04-23T00:25:28.590Z,8.20
2024-04-23T00:27:55.669Z,8.20
2024-04-23T00:30:22.947Z,8.20
2024-04-23T00:32:50.021Z,8.20
2024-04-23T00:35:17.028Z,8.20
2024-04-23T00:37:44.140Z,8.30
2024-04-23T00:40:11.167Z,8.30
2024-04-23T00:42:38.232Z,8.30
2024-04-23T00:45:08.104Z,8.30
2024-04-23T00:47:35.426Z,8.30
2024-04-23T00:50:03.403Z,8.20
2024-04-23T00:52:30.784Z,8.30
2024-04-23T00:54:58.751Z,8.20
2024-04-23T00:57:25.798Z,8.20
2024-04-23T00:59:53.304Z,8.20
2024-04-23T01:02:20.536Z,8.20
2024-04-23T01:04:47.900Z,8.30
2024-04-23T01:07:14.946Z,8.40
2024-04-23T01:09:42.090Z,8.40
2024-04-23T01:12:09.227Z,8.50
2024-04-23T01:14:38.503Z,8.50
2024-04-23T01:17:06.903Z,8.50
2024-04-23T01:19:45.388Z,8.50
2024-04-23T01:22:20.147Z,8.40
2024-04-23T01:25:05.467Z,8.40
2024-04-23T01:27:33.012Z,8.40
2024-04-23T01:30:01.056Z,8.40
2024-04-23T01:32:30.736Z,8.40
2024-04-23T01:34:58.276Z,8.40
2024-04-23T01:37:28.465Z,8.40
2024-04-23T01:39:57.245Z,8.40
2024-04-23T01:42:24.621Z,8.40
2024-04-23T01:44:52.122Z,8.40
2024-04-23T01:47:19.358Z,8.40
2024-04-23T01:49:46.810Z,8.40
2024-04-23T01:52:13.930Z,8.40
2024-04-23T01:54:41.338Z,8.40
2024-04-23T01:57:28.363Z,8.30
2024-04-23T02:00:03.490Z,8.10
2024-04-23T02:02:31.324Z,8.00
2024-04-23T02:08:02.323Z,8.10
2024-04-23T02:10:29.577Z,8.10
2024-04-23T02:12:57.007Z,8.20
2024-04-23T02:15:23.981Z,8.20
2024-04-23T02:17:51.080Z,8.10
2024-04-23T02:20:18.292Z,8.10
2024-04-23T02:22:45.732Z,8.10
2024-04-23T02:25:13.024Z,8.10
2024-04-23T02:27:39.990Z,8.10
2024-04-23T02:30:07.772Z,8.10
2024-04-23T02:32:34.945Z,8.00
2024-04-23T02:35:02.180Z,8.00
2024-04-23T02:37:29.536Z,8.00
2024-04-23T02:39:56.564Z,8.00
2024-04-23T02:42:23.591Z,8.00
2024-04-23T02:44:50.659Z,8.00
2024-04-23T02:47:18.637Z,8.00
2024-04-23T02:49:45.681Z,7.90
2024-04-23T02:52:12.673Z,8.00
2024-04-23T02:54:39.712Z,7.90
2024-04-23T02:57:06.779Z,7.80
2024-04-23T02:59:33.831Z,7.70
2024-04-23T03:02:08.874Z,7.70
2024-04-23T03:04:36.093Z,7.60
2024-04-23T03:07:03.420Z,7.60
2024-04-23T03:09:30.458Z,7.60
2024-04-23T03:11:58.058Z,7.50
2024-04-23T03:14:25.402Z,7.50
2024-04-23T03:16:52.837Z,7.50
2024-04-23T03:19:20.031Z,7.40
2024-04-23T03:21:55.247Z,7.50
2024-04-23T03:24:23.000Z,7.50
2024-04-23T03:26:50.940Z,7.60
2024-04-23T03:29:19.443Z,7.70
2024-04-23T03:31:47.407Z,7.80
2024-04-23T03:34:14.549Z,7.80
2024-04-23T03:36:41.540Z,7.80
2024-04-23T03:39:09.004Z,7.90
2024-04-23T03:41:36.039Z,7.90
2024-04-23T03:44:03.246Z,7.90
2024-04-23T03:46:30.290Z,7.90
2024-04-23T03:48:57.312Z,7.90
2024-04-23T03:51:24.460Z,8.00
2024-04-23T03:53:51.448Z,8.10
2024-04-23T03:56:18.569Z,8.10
2024-04-23T03:58:45.928Z,8.10
2024-04-23T04:01:13.132Z,8.10
2024-04-23T04:03:58.721Z,8.10
2024-04-23T04:06:25.795Z,8.10
2024-04-23T04:08:56.402Z,8.20
2024-04-23T04:11:24.505Z,8.20
2024-04-23T04:13:51.604Z,8.20
2024-04-23T04:16:18.719Z,8.20
2024-04-23T04:18:45.923Z,8.20
2024-04-23T04:21:13.127Z,8.10
2024-04-23T04:23:40.468Z,8.10
2024-04-23T04:26:12.192Z,8.10
2024-04-23T04:28:45.180Z,8.00
2024-04-23T04:31:13.771Z,8.00
2024-04-23T04:33:40.841Z,8.00
2024-04-23T04:36:08.100Z,7.90
2024-04-23T04:38:35.485Z,7.80
2024-04-23T04:41:02.693Z,7.80
2024-04-23T04:43:29.820Z,7.80
2024-04-23T04:45:56.887Z,7.80
2024-04-23T04:48:23.968Z,7.90
2024-04-23T04:50:51.118Z,8.00
2024-04-23T04:53:18.186Z,8.00
2024-04-23T04:55:45.519Z,7.90
2024-04-23T04:58:12.566Z,7.90
2024-04-23T05:00:41.715Z,7.90
2024-04-23T05:03:10.217Z,8.00
2024-04-23T05:05:37.320Z,8.00
2024-04-23T05:08:04.666Z,8.10
2024-04-23T05:10:31.847Z,8.10
2024-04-23T05:12:58.860Z,8.10
2024-04-23T05:15:25.864Z,8.20
2024-04-23T05:17:52.869Z,8.10
2024-04-23T05:20:20.005Z,8.10
2024-04-23T05:22:47.451Z,8.10
2024-04-23T05:25:14.595Z,8.10
2024-04-23T05:27:41.617Z,8.00
2024-04-23T05:30:09.212Z,7.90
2024-04-23T05:32:48.645Z,7.90
2024-04-23T05:35:15.930Z,8.00
2024-04-23T05:37:43.580Z,8.00
2024-04-23T05:40:11.125Z,8.10
2024-04-23T05:42:38.268Z,8.10
2024-04-23T05:45:05.670Z,8.20
2024-04-23T05:47:33.026Z,8.20
2024-04-23T05:50:38.198Z,8.20
2024-04-23T05:53:42.747Z,8.20
2024-04-23T05:56:09.859Z,8.20
2024-04-23T05:58:37.019Z,8.20
2024-04-23T06:01:04.540Z,8.20
2024-04-23T06:03:31.580Z,8.10
2024-04-23T06:05:58.562Z,8.10
2024-04-23T06:08:27.737Z,8.10
2024-04-23T06:10:54.980Z,8.20
2024-04-23T06:13:22.240Z,8.20
2024-04-23T06:15:49.537Z,8.30
2024-04-23T06:18:23.511Z,8.30
2024-04-23T06:20:54.173Z,8.30
2024-04-23T06:23:28.483Z,8.30
2024-04-23T06:25:56.983Z,8.40
2024-04-23T06:28:24.075Z,8.40
2024-04-23T06:30:52.233Z,8.40
2024-04-23T06:33:19.360Z,8.50
2024-04-23T06:35:46.460Z,8.60
2024-04-23T06:38:13.494Z,8.60
2024-04-23T06:40:40.622Z,8.60
2024-04-23T06:43:07.694Z,8.70
2024-04-23T06:45:34.996Z,8.80
2024-04-23T06:48:05.365Z,8.80
2024-04-23T06:50:32.493Z,8.90
2024-04-23T06:53:00.305Z,9.00
2024-04-23T06:55:27.514Z,9.10
2024-04-23T06:57:55.655Z,9.20
2024-04-23T07:00:22.801Z,9.20
2024-04-23T07:02:49.960Z,9.30
2024-04-23T07:05:17.101Z,9.40
2024-04-23T07:07:44.135Z,9.50
2024-04-23T07:10:11.175Z,9.60
2024-04-23T07:12:38.203Z,9.70
2024-04-23T07:15:05.487Z,9.70
2024-04-23T07:17:32.694Z,9.70
2024-04-23T07:19:59.749Z,9.60
2024-04-23T07:22:27.402Z,9.60
2024-04-23T07:24:54.455Z,9.60
2024-04-23T07:27:21.461Z,9.70
2024-04-23T07:29:48.482Z,9.90
2024-04-23T07:32:16.437Z,10.00
2024-04-23T07:34:43.776Z,10.30
2024-04-23T07:37:13.720Z,10.50
2024-04-23T07:39:40.799Z,10.60
2024-04-23T07:42:07.970Z,10.70
2024-04-23T07:44:34.989Z,11.00
2024-04-23T07:47:02.028Z,11.10
2024-04-23T07:49:29.278Z,11.10
2024-04-23T07:51:56.296Z,11.00
2024-04-23T07:54:23.384Z,11.00
2024-04-23T07:56:50.481Z,11.00
2024-04-23T07:59:18.888Z,10.90
2024-04-23T08:01:45.992Z,11.00
2024-04-23T08:04:13.058Z,11.00
2024-04-23T08:06:40.129Z,11.00
2024-04-23T08:09:07.100Z,11.00
2024-04-23T08:11:34.169Z,11.00
2024-04-23T08:14:01.255Z,11.00
2024-04-23T08:16:28.320Z,11.00
2024-04-23T08:18:56.862Z,11.00
2024-04-23T08:21:24.017Z,11.00
2024-04-23T08:23:52.441Z,11.00
2024-04-23T08:26:19.660Z,11.10
2024-04-23T08:28:48.179Z,11.10
2024-04-23T08:31:15.231Z,11.10
2024-04-23T08:33:42.296Z,11.20
2024-04-23T08:36:09.362Z,11.30
2024-04-23T08:38:36.450Z,11.40
2024-04-23T08:41:05.343Z,11.50
2024-04-23T08:43:34.895Z,11.50
2024-04-23T08:46:03.151Z,11.50
2024-04-23T08:48:33.775Z,11.60
2024-04-23T08:51:02.050Z,11.60
2024-04-23T08:53:29.950Z,11.80
2024-04-23T08:56:06.566Z,12.00
2024-04-23T08:58:37.370Z,12.10
2024-04-23T09:01:04.734Z,12.20
2024-04-23T09:03:38.617Z,12.40
2024-04-23T09:06:07.102Z,12.50
2024-04-23T09:08:34.545Z,12.60
2024-04-23T09:11:02.101Z,12.60
2024-04-23T09:13:29.947Z,12.60
2024-04-23T09:15:58.987Z,12.60
2024-04-23T09:18:26.319Z,12.60
2024-04-23T09:20:53.655Z,12.40
2024-04-23T09:23:21.034Z,12.20
2024-04-23T09:25:50.380Z,12.10
2024-04-23T09:28:24.589Z,12.00
2024-04-23T09:30:52.428Z,11.90
2024-04-23T09:33:30.637Z,11.80
2024-04-23T09:36:05.478Z,11.80
2024-04-23T09:38:40.456Z,11.90
2024-04-23T09:41:11.908Z,12.30
2024-04-23T09:43:39.242Z,12.50
2024-04-23T09:46:10.049Z,12.50
2024-04-23T09:48:40.304Z,12.60
2024-04-23T09:51:08.392Z,12.80
2024-04-23T09:53:37.381Z,12.90
2024-04-23T09:56:08.608Z,12.80
2024-04-23T09:58:36.064Z,12.80
2024-04-23T10:01:04.051Z,12.90
2024-04-23T10:03:31.812Z,12.90
2024-04-23T10:06:03.923Z,12.90
2024-04-23T10:09:07.223Z,12.90
2024-04-23T10:11:42.323Z,12.90
2024-04-23T10:14:25.152Z,13.00
2024-04-23T10:16:58.111Z,13.00
2024-04-23T10:19:29.279Z,13.00
2024-04-23T10:21:59.224Z,13.00
2024-04-23T10:24:27.083Z,13.00
2024-04-23T10:26:54.498Z,12.90
2024-04-23T10:29:22.531Z,12.90
2024-04-23T10:31:49.712Z,13.00
2024-04-23T10:34:18.019Z,13.00
2024-04-23T10:36:51.430Z,13.10
2024-04-23T10:39:23.440Z,13.10
2024-04-23T10:41:52.679Z,13.20
2024-04-23T10:44:23.076Z,13.20
2024-04-23T10:46:50.335Z,13.30
2024-04-23T10:49:17.632Z,13.30
2024-04-23T10:51:47.059Z,13.30
2024-04-23T10:54:15.819Z,13.20
2024-04-23T10:56:43.194Z,13.10
2024-04-23T10:59:15.395Z,13.10
2024-04-23T11:01:58.808Z,13.20
2024-04-23T11:04:47.738Z,13.30
2024-04-23T11:07:26.504Z,13.40
2024-04-23T11:10:03.915Z,13.30
2024-04-23T11:12:31.379Z,13.10
2024-04-23T11:14:59.369Z,12.90
2024-04-23T11:17:26.764Z,12.90
2024-04-23T11:19:57.563Z,12.90
2024-04-23T11:22:49.772Z,12.90
2024-04-23T11:25:28.881Z,13.00
2024-04-23T11:27:56.332Z,13.00
2024-04-23T11:30:26.887Z,13.10
2024-04-23T11:32:54.896Z,13.10
2024-04-23T11:35:25.351Z,13.20
2024-04-23T11:37:57.587Z,13.30
2024-04-23T11:40:24.722Z,13.30
2024-04-23T11:42:53.120Z,13.30
2024-04-23T11:45:21.110Z,13.30
2024-04-23T11:47:52.974Z,13.30
2024-04-23T11:50:20.170Z,13.30
2024-04-23T11:52:47.606Z,13.30
2024-04-23T11:55:14.752Z,13.40
2024-04-23T11:57:41.878Z,13.50
2024-04-23T12:00:09.165Z,13.50
2024-04-23T12:02:39.489Z,13.50
2024-04-23T12:05:08.898Z,13.40
2024-04-23T12:07:36.781Z,13.40
2024-04-23T12:10:06.601Z,13.40
2024-04-23T12:12:38.040Z,13.50
2024-04-23T12:15:07.280Z,13.50
2024-04-23T12:17:38.415Z,13.60
2024-04-23T12:20:10.159Z,13.70
2024-04-23T12:22:37.407Z,13.90
2024-04-23T12:25:05.229Z,14.00
2024-04-23T12:27:33.394Z,14.00
2024-04-23T12:30:10.987Z,14.00
2024-04-23T12:32:42.150Z,14.00
2024-04-23T12:35:10.051Z,13.90
2024-04-23T12:37:37.509Z,13.90
2024-04-23T12:40:05.294Z,13.80
2024-04-23T12:42:34.669Z,13.80
2024-04-23T12:45:02.462Z,13.90
2024-04-23T12:47:29.491Z,13.80
2024-04-23T12:49:56.618Z,13.80
2024-04-23T12:52:24.535Z,13.80
2024-04-23T12:54:51.726Z,13.70
2024-04-23T12:57:19.485Z,13.70
2024-04-23T12:59:46.576Z,13.60
2024-04-23T13:02:14.039Z,13.60
2024-04-23T13:04:41.371Z,13.50
2024-04-23T13:07:09.397Z,13.50
2024-04-23T13:09:37.369Z,13.40
2024-04-23T13:12:10.965Z,13.40
2024-04-23T13:14:38.620Z,13.40
2024-04-23T13:17:06.439Z,13.40
2024-04-23T13:19:33.730Z,13.40
2024-04-23T13:22:01.724Z,13.40
2024-04-23T13:24:29.684Z,13.40
2024-04-23T13:26:56.757Z,13.40
2024-04-23T13:29:23.851Z,13.40
2024-04-23T13:31:51.103Z,13.40
2024-04-23T13:34:18.602Z,13.40
2024-04-23T13:36:45.693Z,13.40
2024-04-23T13:39:12.735Z,13.40
2024-04-23T13:41:39.854Z,13.40
2024-04-23T13:44:07.028Z,13.40
2024-04-23T13:46:34.119Z,13.40
2024-04-23T13:49:01.473Z,13.40
2024-04-23T13:51:28.445Z,13.40
2024-04-23T13:53:55.399Z,13.50
2024-04-23T13:56:22.440Z,13.50
2024-04-23T13:58:49.598Z,13.40
2024-04-23T14:01:16.627Z,13.30
2024-04-23T14:03:44.805Z,13.30
2024-04-23T14:06:12.300Z,13.20
2024-04-23T14:08:39.861Z,13.10
2024-04-23T14:11:07.554Z,13.10
2024-04-23T14:13:35.591Z,13.00
2024-04-23T14:16:10.611Z,13.00
2024-04-23T14:18:37.853Z,13.00
2024-04-23T14:21:05.560Z,13.00
2024-04-23T14:23:33.751Z,13.10
2024-04-23T14:26:01.286Z,13.20
2024-04-23T14:28:34.790Z,13.30
2024-04-23T14:31:05.773Z,13.40
2024-04-23T14:33:33.740Z,13.50
2024-04-23T14:36:03.216Z,13.60
2024-04-23T14:38:32.176Z,13.60
2024-04-23T14:41:04.580Z,13.50
2024-04-23T14:43:32.249Z,13.40
2024-04-23T14:45:59.630Z,13.40
2024-04-23T14:48:27.027Z,13.40
2024-04-23T14:50:57.591Z,13.40
2024-04-23T14:53:24.816Z,13.30
2024-04-23T14:56:02.521Z,13.30
2024-04-23T14:58:30.388Z,13.30
2024-04-23T15:00:58.682Z,13.30
2024-04-23T15:03:26.567Z,13.20
2024-04-23T15:05:53.598Z,13.20
2024-04-23T15:08:21.127Z,13.30
2024-04-23T15:10:54.136Z,13.30
2024-04-23T15:13:23.260Z,13.40
2024-04-23T15:16:06.533Z,13.50
2024-04-23T15:18:38.288Z,13.60
2024-04-23T15:21:12.855Z,13.60
2024-04-23T15:23:40.133Z,13.60
2024-04-23T15:26:07.634Z,13.50
2024-04-23T15:28:36.921Z,13.50
2024-04-23T15:31:05.651Z,13.40
2024-04-23T15:33:40.213Z,13.30
2024-04-23T15:36:13.006Z,13.30
2024-04-23T15:38:47.226Z,13.20
2024-04-23T15:41:15.054Z,13.10
2024-04-23T15:43:42.379Z,13.00
2024-04-23T15:46:16.760Z,13.00
2024-04-23T15:48:44.526Z,13.00
2024-04-23T15:51:11.748Z,12.90
2024-04-23T15:53:39.061Z,12.90
2024-04-23T15:56:07.317Z,12.80
2024-04-23T15:58:34.743Z,12.80
2024-04-23T16:01:03.748Z,12.70
2024-04-23T16:03:34.558Z,12.70
2024-04-23T16:06:03.333Z,12.70
2024-04-23T16:08:30.589Z,12.80
2024-04-23T16:11:06.820Z,12.80
2024-04-23T16:13:34.185Z,12.80
2024-04-23T16:16:02.114Z,12.80
2024-04-23T16:18:30.157Z,12.70
2024-04-23T16:21:04.045Z,12.70
2024-04-23T16:23:31.602Z,12.70
2024-04-23T16:26:02.350Z,12.80
2024-04-23T16:28:29.599Z,12.70
2024-04-23T16:31:07.752Z,12.70
2024-04-23T16:33:40.434Z,12.70
2024-04-23T16:36:09.019Z,12.70
2024-04-23T16:38:39.805Z,12.70
2024-04-23T16:41:08.901Z,12.70
2024-04-23T16:43:36.959Z,12.50
2024-04-23T16:46:07.975Z,12.40
2024-04-23T16:48:35.978Z,12.30
2024-04-23T16:51:03.465Z,12.20
2024-04-23T16:53:30.644Z,12.20
2024-04-23T16:55:58.509Z,12.10
2024-04-23T16:58:25.753Z,12.10
2024-04-23T17:00:52.787Z,12.00
2024-04-23T17:03:20.027Z,12.00
2024-04-23T17:05:47.297Z,12.10
2024-04-23T17:08:14.403Z,12.10
2024-04-23T17:10:45.818Z,12.10
2024-04-23T17:13:13.114Z,12.20
2024-04-23T17:15:40.227Z,12.20
2024-04-23T17:18:07.385Z,12.20
2024-04-23T17:20:37.553Z,12.20
2024-04-23T17:23:05.172Z,12.20
2024-04-23T17:25:32.190Z,12.20
2024-04-23T17:27:59.206Z,12.10
2024-04-23T17:30:26.218Z,12.10
2024-04-23T17:32:53.386Z,12.20
2024-04-23T17:35:20.612Z,12.20
2024-04-23T17:37:47.719Z,12.20
2024-04-23T17:40:14.784Z,12.10
2024-04-23T17:42:42.573Z,12.00
2024-04-23T17:45:12.545Z,12.00
2024-04-23T17:47:42.915Z,11.90
2024-04-23T17:50:11.970Z,11.90
2024-04-23T17:52:39.121Z,11.80
2024-04-23T17:55:08.676Z,11.70
2024-04-23T17:57:36.169Z,11.70
2024-04-23T18:00:06.560Z,11.60
2024-04-23T18:02:33.998Z,11.60
2024-04-23T18:05:02.438Z,11.50
2024-04-23T18:07:29.553Z,11.50
2024-04-23T18:09:56.580Z,11.40
2024-04-23T18:12:23.950Z,11.40
2024-04-23T18:14:51.409Z,11.40
2024-04-23T18:17:18.631Z,11.40
2024-04-23T18:19:45.741Z,11.30
2024-04-23T18:22:12.832Z,11.30
2024-04-23T18:24:39.883Z,11.30
2024-04-23T18:27:06.900Z,11.30
2024-04-23T18:29:33.918Z,11.30
2024-04-23T18:32:01.059Z,11.20
2024-04-23T18:34:30.677Z,11.10
2024-04-23T18:36:57.727Z,11.00
2024-04-23T18:39:24.715Z,11.00
2024-04-23T18:41:51.663Z,11.00
2024-04-23T18:44:18.871Z,11.00
2024-04-23T18:46:46.229Z,11.00
2024-04-23T18:49:13.230Z,10.90
2024-04-23T18:51:40.257Z,10.90
2024-04-23T18:54:07.529Z,10.90
2024-04-23T18:56:35.681Z,10.90
2024-04-23T18:59:02.698Z,11.00
2024-04-23T19:01:30.063Z,11.00
2024-04-23T19:03:57.136Z,11.00
2024-04-23T19:06:24.274Z,11.00
2024-04-23T19:08:51.966Z,11.00
2024-04-23T19:11:31.245Z,10.90
2024-04-23T19:14:07.828Z,10.90
2024-04-23T19:16:43.191Z,10.90
2024-04-23T19:19:10.597Z,10.90
2024-04-23T19:21:37.692Z,10.80
2024-04-23T19:24:05.894Z,10.80
2024-04-23T19:26:33.034Z,10.70
2024-04-23T19:29:00.146Z,10.70
2024-04-23T19:31:27.330Z,10.70
2024-04-23T19:33:54.389Z,10.70
2024-04-23T19:36:23.281Z,10.70
2024-04-23T19:38:50.332Z,10.70
2024-04-23T19:41:17.702Z,10.70
2024-04-23T19:43:52.177Z,10.70
2024-04-23T19:46:21.539Z,10.70
2024-04-23T19:48:50.562Z,10.70
2024-04-23T19:51:21.555Z,10.70
2024-04-23T19:53:51.561Z,10.70
2024-04-23T19:56:32.067Z,10.70
2024-04-23T19:59:00.094Z,10.60
2024-04-23T20:01:30.408Z,10.60
2024-04-23T20:03:57.905Z,10.60
2024-04-23T20:06:25.194Z,10.60
2024-04-23T20:08:52.695Z,10.60
2024-04-23T20:11:19.846Z,10.70
2024-04-23T20:13:46.971Z,10.60
2024-04-23T20:16:14.297Z,10.60
2024-04-23T20:18:41.452Z,10.50
2024-04-23T20:21:15.323Z,10.50
2024-04-23T20:23:42.557Z,10.50
2024-04-23T20:26:15.092Z,10.50
2024-04-23T20:28:42.964Z,10.50
2024-04-23T20:31:10.023Z,10.50
2024-04-23T20:33:37.256Z,10.60
2024-04-23T20:36:04.947Z,10.60
2024-04-23T20:38:31.997Z,10.60
2024-04-23T20:41:04.517Z,10.60
2024-04-23T20:43:31.559Z,10.60
2024-04-23T20:46:03.064Z,10.70
2024-04-23T20:48:30.151Z,10.60
2024-04-23T20:50:58.382Z,10.70
2024-04-23T20:53:26.340Z,10.60
2024-04-23T20:55:53.427Z,10.60
2024-04-23T20:58:22.066Z,10.60
2024-04-23T21:00:49.947Z,10.60
2024-04-23T21:03:17.363Z,10.60
2024-04-23T21:05:44.856Z,10.50
2024-04-23T21:08:12.675Z,10.50
2024-04-23T21:10:40.366Z,10.50
2024-04-23T21:13:07.444Z,10.50
2024-04-23T21:15:35.287Z,10.40
2024-04-23T21:18:02.673Z,10.40
2024-04-23T21:20:30.173Z,10.40
2024-04-23T21:22:57.355Z,10.40
2024-04-23T21:25:24.619Z,10.40
2024-04-23T21:27:51.676Z,10.40
2024-04-23T21:30:18.653Z,10.40
2024-04-23T21:32:46.004Z,10.40
2024-04-23T21:35:13.513Z,10.30
2024-04-23T21:37:40.576Z,10.30
2024-04-23T21:40:08.181Z,10.40
2024-04-23T21:42:41.129Z,10.30
2024-04-23T21:45:09.755Z,10.40
2024-04-23T21:47:37.557Z,10.40
2024-04-23T21:50:05.887Z,10.40
2024-04-23T21:52:42.074Z,10.30
2024-04-23T21:55:10.704Z,10.30
2024-04-23T21:57:38.215Z,10.30
2024-04-23T22:00:06.847Z,10.20
2024-04-23T22:02:34.535Z,10.20
2024-04-23T22:05:02.064Z,10.30
2024-04-23T22:07:29.228Z,10.30
2024-04-23T22:09:56.305Z,10.30
2024-04-23T22:12:23.417Z,10.40
2024-04-23T22:14:50.512Z,10.40
2024-04-23T22:17:17.745Z,10.40
2024-04-23T22:19:45.023Z,10.40
2024-04-23T22:22:12.097Z,10.40
2024-04-23T22:24:42.893Z,10.50
2024-04-23T22:27:10.537Z,10.40
2024-04-23T22:29:38.085Z,10.40
2024-04-23T22:32:05.503Z,10.40
2024-04-23T22:34:32.739Z,10.30
2024-04-23T22:37:00.142Z,10.40
2024-04-23T22:39:27.103Z,10.40
2024-04-23T22:41:54.077Z,10.30
2024-04-23T22:44:21.168Z,10.30
2024-04-23T22:46:48.291Z,10.30
2024-04-23T22:49:15.368Z,10.30
2024-04-23T22:51:48.307Z,10.30
2024-04-23T22:54:15.416Z,10.30
2024-04-23T22:56:42.445Z,10.20
2024-04-23T22:59:09.920Z,10.20
2024-04-23T23:01:36.911Z,10.20
2024-04-23T23:04:03.990Z,10.30
2024-04-23T23:06:34.311Z,10.20
2024-04-23T23:09:03.303Z,10.20
2024-04-23T23:11:30.506Z,10.20
2024-04-23T23:13:57.715Z,10.20
2024-04-23T23:16:24.972Z,10.20
2024-04-23T23:18:52.159Z,10.20
2024-04-23T23:21:19.241Z,10.20
2024-04-23T23:23:46.296Z,10.20
2024-04-23T23:26:13.329Z,10.20
2024-04-23T23:28:40.343Z,10.20
2024-04-23T23:31:07.514Z,10.10
2024-04-23T23:33:34.748Z,10.10
2024-04-23T23:36:02.115Z,10.10
2024-04-23T23:38:29.155Z,10.10
2024-04-23T23:40:56.219Z,10.10
2024-04-23T23:43:23.288Z,10.10
2024-04-23T23:45:51.108Z,10.10
2024-04-23T23:48:18.482Z,10.10
2024-04-23T23:50:45.702Z,10.10
2024-04-23T23:53:13.142Z,10.10
2024-04-23T23:55:40.571Z,10.10
2024-04-23T23:58:07.633Z,10.20
